New Yoshino — JG5527 — position and weather

sailwx.info

Track history (hours):
 
Tides and Currents Weather Stations Pressure Air Temp Water Temp Dewpoint Dewpoint Depression Visibility Wind Speed Wind Dir Waves Ship Positions

New Yoshino

Last reported at 2014-Jul-26 16:28 UTC. Time now 2014-Jul-26 17:14 UTC.
Position N 34°09' E 135°08'.

Length 102 m; draft 4.7 m.

Type: Tanker. MMSI: 431300724.

Date/timePositionNaut miles runAvg speedWind from/ knotsBaromVisibWave heightAir tempDewpointWater temp
2014-Jul-26 16:28N 34°09' E 135°08'0 0.0
2014-Jul-26 15:31N 34°09' E 135°08'0 0.0
2014-Jul-26 14:28N 34°09' E 135°08'0 0.1
2014-Jul-26 13:31N 34°09' E 135°08'5 5.3
2014-Jul-26 12:33N 34°13' E 135°04'1010.1
2014-Jul-26 11:33N 34°22' E 135°00'1211.8
2014-Jul-26 10:33N 34°34' E 135°03'8 7.7
2014-Jul-26 09:33N 34°35' E 134°53'1 0.1
2014-Jul-25 14:33N 34°36' E 134°55'9 9.2
2014-Jul-25 13:33N 34°32' E 135°05'1413.6
2014-Jul-25 12:33N 34°19' E 134°60'1211.9
2014-Jul-25 11:33N 34°08' E 135°06'1 0.1
2014-Jul-25 04:32N 34°07' E 135°07'12 9.9
2014-Jul-25 03:23N 33°57' E 135°02'219 6.8
2014-Jul-23 19:12N 34°50' E 139°19'710.3
2014-Jul-23 18:33N 34°54' E 139°26'1110.9
2014-Jul-23 17:33N 35°01' E 139°36'1211.9
2014-Jul-23 16:33N 35°10' E 139°45'1111.2
2014-Jul-23 15:33N 35°21' E 139°42'10 9.8
2014-Jul-23 14:33N 35°31' E 139°46'1 0.7
2014-Jul-23 13:33N 35°31' E 139°46'0 0.0
2014-Jul-23 12:34N 35°31' E 139°46'0 0.0
2014-Jul-23 11:33N 35°31' E 139°46'0 0.0
2014-Jul-23 10:33N 35°31' E 139°46'0 0.0
2014-Jul-23 09:34N 35°31' E 139°46'0 0.0
2014-Jul-23 08:33N 35°31' E 139°46'0 0.0
2014-Jul-23 07:33N 35°31' E 139°46'1 0.8
2014-Jul-23 06:34N 35°31' E 139°46'6 6.1
2014-Jul-23 05:33N 35°24' E 139°45'0 0.1
2014-Jul-23 04:33N 35°24' E 139°45'0 0.0
2014-Jul-23 03:33N 35°24' E 139°45'0 0.0
2014-Jul-23 02:33N 35°24' E 139°45'0 0.0
2014-Jul-23 01:33N 35°24' E 139°45'0 0.0
2014-Jul-23 00:30N 35°24' E 139°45'0 0.0
2014-Jul-22 23:33N 35°24' E 139°45'0 0.1
2014-Jul-22 22:33N 35°24' E 139°45'0 0.0
2014-Jul-22 21:33N 35°24' E 139°45'0 0.0
2014-Jul-22 20:30N 35°24' E 139°45'0 0.0
2014-Jul-22 19:33N 35°24' E 139°45'0 0.1
2014-Jul-22 18:30N 35°24' E 139°45'0 0.0
2014-Jul-22 17:33N 35°24' E 139°45'0 0.1
2014-Jul-22 16:33N 35°24' E 139°45'0 0.1
2014-Jul-22 15:33N 35°24' E 139°45'7 7.3
2014-Jul-22 14:33N 35°32' E 139°46'0 0.1
2014-Jul-22 13:27N 35°32' E 139°46'0 0.0
2014-Jul-22 12:33N 35°32' E 139°46'0 0.0
2014-Jul-22 11:31N 35°32' E 139°46'0 0.0
2014-Jul-22 10:34N 35°32' E 139°46'0 0.0
2014-Jul-22 09:22N 35°32' E 139°46'0 0.1
2014-Jul-22 08:33N 35°32' E 139°46'5 4.6
2014-Jul-22 07:33N 35°28' E 139°42'4 4.3
2014-Jul-22 06:33N 35°24' E 139°45'0 0.0
2014-Jul-22 05:33N 35°24' E 139°45'0 0.0
2014-Jul-22 04:33N 35°24' E 139°45'0 0.0
2014-Jul-22 03:33N 35°24' E 139°45'0 0.0
2014-Jul-22 02:33N 35°24' E 139°45'0 0.0
2014-Jul-22 01:33N 35°24' E 139°45'0 0.0
2014-Jul-22 00:30N 35°24' E 139°45'0 0.0
2014-Jul-21 23:33N 35°24' E 139°45'0 0.0
2014-Jul-21 22:33N 35°24' E 139°45'0 0.0
2014-Jul-21 21:33N 35°24' E 139°45'0 0.1
2014-Jul-21 20:33N 35°24' E 139°45'0 0.0
2014-Jul-21 20:12N 35°24' E 139°45'0 0.0
2014-Jul-21 19:33N 35°24' E 139°45'0 0.0
2014-Jul-21 18:33N 35°24' E 139°45'0 0.0
2014-Jul-21 17:33N 35°24' E 139°45'0 0.0
2014-Jul-21 16:33N 35°24' E 139°45'0 0.0
2014-Jul-21 15:33N 35°24' E 139°45'0 0.0
2014-Jul-21 14:30N 35°24' E 139°45'0 0.0
2014-Jul-21 13:30N 35°24' E 139°45'0 0.0
2014-Jul-21 12:30N 35°24' E 139°45'0 0.0
2014-Jul-21 11:30N 35°24' E 139°45'0 0.0
2014-Jul-21 10:33N 35°24' E 139°45'0 0.0
2014-Jul-21 09:33N 35°24' E 139°45'0 0.1
2014-Jul-21 08:33N 35°24' E 139°45'1 0.8
2014-Jul-21 07:34N 35°23' E 139°45'1211.5
2014-Jul-21 06:34N 35°12' E 139°47'1312.6
2014-Jul-21 05:34N 35°02' E 139°38'1513.8
2014-Jul-21 04:30N 34°53' E 139°24'22110.4
2014-Jul-20 07:20N 34°03' E 135°02'6 7.3
2014-Jul-20 06:33N 34°07' E 135°07'0 0.0
2014-Jul-20 00:33N 34°07' E 135°07'1 0.6
2014-Jul-19 23:33N 34°08' E 135°07'1 0.6
2014-Jul-19 22:33N 34°07' E 135°07'0 0.0
2014-Jul-19 05:12N 34°07' E 135°08'1 0.6
2014-Jul-19 04:10N 34°08' E 135°07'0 0.0
2014-Jul-19 03:04N 34°08' E 135°07'0 0.0
2014-Jul-19 02:31N 34°08' E 135°07'0 0.1
2014-Jul-19 01:31N 34°08' E 135°07'0 0.0
2014-Jul-19 00:31N 34°08' E 135°07'0 0.0
2014-Jul-18 23:04N 34°08' E 135°07'0 0.1
2014-Jul-18 22:10N 34°08' E 135°07'0 0.1
2014-Jul-18 21:31N 34°08' E 135°07'0 0.0
2014-Jul-18 20:31N 34°08' E 135°07'0 0.0
2014-Jul-18 19:31N 34°08' E 135°07'0 0.0
2014-Jul-18 18:31N 34°08' E 135°07'0 0.0
2014-Jul-18 17:31N 34°08' E 135°07'0 0.1
2014-Jul-18 16:31N 34°08' E 135°07'0 0.1
2014-Jul-18 15:31N 34°08' E 135°07'0 0.0
2014-Jul-18 14:19N 34°08' E 135°07'0 0.0
2014-Jul-18 13:25N 34°08' E 135°07'0 0.0
2014-Jul-18 11:28N 34°08' E 135°07'0 0.1
2014-Jul-18 10:26N 34°08' E 135°07'7 7.8
2014-Jul-18 09:33N 34°02' E 135°02'22710.1
2014-Jul-17 11:05N 34°58' E 139°30'611.9
2014-Jul-17 10:33N 35°02' E 139°36'1212.3
2014-Jul-17 09:33N 35°11' E 139°45'1111.4
2014-Jul-17 08:33N 35°22' E 139°42'9 9.2
2014-Jul-17 07:33N 35°31' E 139°46'0 0.4
2014-Jul-17 06:32N 35°31' E 139°46'0 0.0
2014-Jul-17 02:32N 35°31' E 139°46'0 0.0
2014-Jul-17 01:32N 35°31' E 139°46'0 0.0
2014-Jul-17 00:29N 35°31' E 139°46'1 0.7
2014-Jul-16 23:28N 35°30' E 139°46'0 0.0
2014-Jul-16 22:28N 35°30' E 139°46'0 0.0
2014-Jul-16 21:28N 35°30' E 139°46'0 0.0
2014-Jul-16 20:28N 35°30' E 139°46'0 0.0
2014-Jul-16 19:28N 35°30' E 139°46'0 0.0
2014-Jul-16 18:28N 35°30' E 139°46'0 0.0
2014-Jul-16 17:28N 35°30' E 139°46'  
Track history (hours):
 
Tides and Currents Weather Stations Pressure Air Temp Water Temp Dewpoint Dewpoint Depression Visibility Wind Speed Wind Dir Waves Ship Positions

New Yoshino

Last reported at 2014-Jul-26 16:28 UTC. Time now 2014-Jul-26 17:14 UTC.
Position N 34°09' E 135°08'.

Length 102 m; draft 4.7 m.

Type: Tanker. MMSI: 431300724.

Date/timePositionNaut miles runAvg speedWind from/ knotsBaromVisibWave heightAir tempDewpointWater temp
2014-Jul-26 16:28N 34°09' E 135°08'0 0.0
2014-Jul-26 15:31N 34°09' E 135°08'0 0.0
2014-Jul-26 14:28N 34°09' E 135°08'0 0.1
2014-Jul-26 13:31N 34°09' E 135°08'5 5.3
2014-Jul-26 12:33N 34°13' E 135°04'1010.1
2014-Jul-26 11:33N 34°22' E 135°00'1211.8
2014-Jul-26 10:33N 34°34' E 135°03'8 7.7
2014-Jul-26 09:33N 34°35' E 134°53'1 0.1
2014-Jul-25 14:33N 34°36' E 134°55'9 9.2
2014-Jul-25 13:33N 34°32' E 135°05'1413.6
2014-Jul-25 12:33N 34°19' E 134°60'1211.9
2014-Jul-25 11:33N 34°08' E 135°06'1 0.1
2014-Jul-25 04:32N 34°07' E 135°07'12 9.9
2014-Jul-25 03:23N 33°57' E 135°02'219 6.8
2014-Jul-23 19:12N 34°50' E 139°19'710.3
2014-Jul-23 18:33N 34°54' E 139°26'1110.9
2014-Jul-23 17:33N 35°01' E 139°36'1211.9
2014-Jul-23 16:33N 35°10' E 139°45'1111.2
2014-Jul-23 15:33N 35°21' E 139°42'10 9.8
2014-Jul-23 14:33N 35°31' E 139°46'1 0.7
2014-Jul-23 13:33N 35°31' E 139°46'0 0.0
2014-Jul-23 12:34N 35°31' E 139°46'0 0.0
2014-Jul-23 11:33N 35°31' E 139°46'0 0.0
2014-Jul-23 10:33N 35°31' E 139°46'0 0.0
2014-Jul-23 09:34N 35°31' E 139°46'0 0.0
2014-Jul-23 08:33N 35°31' E 139°46'0 0.0
2014-Jul-23 07:33N 35°31' E 139°46'1 0.8
2014-Jul-23 06:34N 35°31' E 139°46'6 6.1
2014-Jul-23 05:33N 35°24' E 139°45'0 0.1
2014-Jul-23 04:33N 35°24' E 139°45'0 0.0
2014-Jul-23 03:33N 35°24' E 139°45'0 0.0
2014-Jul-23 02:33N 35°24' E 139°45'0 0.0
2014-Jul-23 01:33N 35°24' E 139°45'0 0.0
2014-Jul-23 00:30N 35°24' E 139°45'0 0.0
2014-Jul-22 23:33N 35°24' E 139°45'0 0.1
2014-Jul-22 22:33N 35°24' E 139°45'0 0.0
2014-Jul-22 21:33N 35°24' E 139°45'0 0.0
2014-Jul-22 20:30N 35°24' E 139°45'0 0.0
2014-Jul-22 19:33N 35°24' E 139°45'0 0.1
2014-Jul-22 18:30N 35°24' E 139°45'0 0.0
2014-Jul-22 17:33N 35°24' E 139°45'0 0.1
2014-Jul-22 16:33N 35°24' E 139°45'0 0.1
2014-Jul-22 15:33N 35°24' E 139°45'7 7.3
2014-Jul-22 14:33N 35°32' E 139°46'0 0.1
2014-Jul-22 13:27N 35°32' E 139°46'0 0.0
2014-Jul-22 12:33N 35°32' E 139°46'0 0.0
2014-Jul-22 11:31N 35°32' E 139°46'0 0.0
2014-Jul-22 10:34N 35°32' E 139°46'0 0.0
2014-Jul-22 09:22N 35°32' E 139°46'0 0.1
2014-Jul-22 08:33N 35°32' E 139°46'5 4.6
2014-Jul-22 07:33N 35°28' E 139°42'4 4.3
2014-Jul-22 06:33N 35°24' E 139°45'0 0.0
2014-Jul-22 05:33N 35°24' E 139°45'0 0.0
2014-Jul-22 04:33N 35°24' E 139°45'0 0.0
2014-Jul-22 03:33N 35°24' E 139°45'0 0.0
2014-Jul-22 02:33N 35°24' E 139°45'0 0.0
2014-Jul-22 01:33N 35°24' E 139°45'0 0.0
2014-Jul-22 00:30N 35°24' E 139°45'0 0.0
2014-Jul-21 23:33N 35°24' E 139°45'0 0.0
2014-Jul-21 22:33N 35°24' E 139°45'0 0.0
2014-Jul-21 21:33N 35°24' E 139°45'0 0.1
2014-Jul-21 20:33N 35°24' E 139°45'0 0.0
2014-Jul-21 20:12N 35°24' E 139°45'0 0.0
2014-Jul-21 19:33N 35°24' E 139°45'0 0.0
2014-Jul-21 18:33N 35°24' E 139°45'0 0.0
2014-Jul-21 17:33N 35°24' E 139°45'0 0.0
2014-Jul-21 16:33N 35°24' E 139°45'0 0.0
2014-Jul-21 15:33N 35°24' E 139°45'0 0.0
2014-Jul-21 14:30N 35°24' E 139°45'0 0.0
2014-Jul-21 13:30N 35°24' E 139°45'0 0.0
2014-Jul-21 12:30N 35°24' E 139°45'0 0.0
2014-Jul-21 11:30N 35°24' E 139°45'0 0.0
2014-Jul-21 10:33N 35°24' E 139°45'0 0.0
2014-Jul-21 09:33N 35°24' E 139°45'0 0.1
2014-Jul-21 08:33N 35°24' E 139°45'1 0.8
2014-Jul-21 07:34N 35°23' E 139°45'1211.5
2014-Jul-21 06:34N 35°12' E 139°47'1312.6
2014-Jul-21 05:34N 35°02' E 139°38'1513.8
2014-Jul-21 04:30N 34°53' E 139°24'22110.4
2014-Jul-20 07:20N 34°03' E 135°02'6 7.3
2014-Jul-20 06:33N 34°07' E 135°07'0 0.0
2014-Jul-20 00:33N 34°07' E 135°07'1 0.6
2014-Jul-19 23:33N 34°08' E 135°07'1 0.6
2014-Jul-19 22:33N 34°07' E 135°07'0 0.0
2014-Jul-19 05:12N 34°07' E 135°08'1 0.6
2014-Jul-19 04:10N 34°08' E 135°07'0 0.0
2014-Jul-19 03:04N 34°08' E 135°07'0 0.0
2014-Jul-19 02:31N 34°08' E 135°07'0 0.1
2014-Jul-19 01:31N 34°08' E 135°07'0 0.0
2014-Jul-19 00:31N 34°08' E 135°07'0 0.0
2014-Jul-18 23:04N 34°08' E 135°07'0 0.1
2014-Jul-18 22:10N 34°08' E 135°07'0 0.1
2014-Jul-18 21:31N 34°08' E 135°07'0 0.0
2014-Jul-18 20:31N 34°08' E 135°07'0 0.0
2014-Jul-18 19:31N 34°08' E 135°07'0 0.0
2014-Jul-18 18:31N 34°08' E 135°07'0 0.0
2014-Jul-18 17:31N 34°08' E 135°07'0 0.1
2014-Jul-18 16:31N 34°08' E 135°07'0 0.1
2014-Jul-18 15:31N 34°08' E 135°07'0 0.0
2014-Jul-18 14:19N 34°08' E 135°07'0 0.0
2014-Jul-18 13:25N 34°08' E 135°07'0 0.0
2014-Jul-18 11:28N 34°08' E 135°07'0 0.1
2014-Jul-18 10:26N 34°08' E 135°07'7 7.8
2014-Jul-18 09:33N 34°02' E 135°02'22710.1
2014-Jul-17 11:05N 34°58' E 139°30'611.9
2014-Jul-17 10:33N 35°02' E 139°36'1212.3
2014-Jul-17 09:33N 35°11' E 139°45'1111.4
2014-Jul-17 08:33N 35°22' E 139°42'9 9.2
2014-Jul-17 07:33N 35°31' E 139°46'0 0.4
2014-Jul-17 06:32N 35°31' E 139°46'0 0.0
2014-Jul-17 02:32N 35°31' E 139°46'0 0.0
2014-Jul-17 01:32N 35°31' E 139°46'0 0.0
2014-Jul-17 00:29N 35°31' E 139°46'1 0.7
2014-Jul-16 23:28N 35°30' E 139°46'0 0.0
2014-Jul-16 22:28N 35°30' E 139°46'0 0.0
2014-Jul-16 21:28N 35°30' E 139°46'0 0.0
2014-Jul-16 20:28N 35°30' E 139°46'0 0.0
2014-Jul-16 19:28N 35°30' E 139°46'0 0.0
2014-Jul-16 18:28N 35°30' E 139°46'0 0.0
2014-Jul-16 17:28N 35°30' E 139°46'  

Dump ship's entire track history